createdAt,value
2023-07-03T00:00:20.223Z,17.00
2023-07-03T00:02:52.704Z,17.00
2023-07-03T00:05:21.818Z,16.80
2023-07-03T00:07:49.065Z,16.80
2023-07-03T00:10:17.731Z,16.80
2023-07-03T00:12:45.779Z,16.70
2023-07-03T00:15:13.611Z,16.70
2023-07-03T00:17:45.715Z,16.90
2023-07-03T00:20:15.620Z,16.80
2023-07-03T00:22:47.914Z,16.40
2023-07-03T00:25:16.321Z,16.50
2023-07-03T00:27:43.546Z,16.60
2023-07-03T00:30:11.833Z,16.60
2023-07-03T00:32:39.007Z,16.60
2023-07-03T00:35:07.943Z,16.60
2023-07-03T00:37:35.827Z,16.40
2023-07-03T00:40:04.508Z,16.50
2023-07-03T00:42:31.991Z,16.50
2023-07-03T00:44:59.144Z,16.50
2023-07-03T00:47:28.788Z,16.40
2023-07-03T00:49:55.989Z,16.30
2023-07-03T00:52:23.495Z,16.30
2023-07-03T00:54:51.116Z,16.10
2023-07-03T00:57:18.658Z,15.70
2023-07-03T00:59:46.263Z,15.90
2023-07-03T01:02:35.553Z,16.00
2023-07-03T01:05:12.299Z,15.80
2023-07-03T01:07:40.672Z,15.90
2023-07-03T01:10:16.858Z,16.00
2023-07-03T01:12:48.717Z,15.80
2023-07-03T01:15:24.645Z,16.00
2023-07-03T01:17:54.959Z,15.70
2023-07-03T01:20:25.643Z,16.00
2023-07-03T01:23:17.127Z,15.90
2023-07-03T01:25:47.661Z,15.60
2023-07-03T01:28:19.530Z,16.00
2023-07-03T01:30:51.658Z,16.00
2023-07-03T01:33:26.539Z,15.70
2023-07-03T01:35:55.424Z,15.60
2023-07-03T01:38:24.637Z,15.70
2023-07-03T01:40:54.780Z,15.80
2023-07-03T01:43:23.214Z,15.70
2023-07-03T01:45:50.503Z,15.60
2023-07-03T01:48:18.946Z,15.30
2023-07-03T01:50:48.937Z,15.50
2023-07-03T01:53:22.846Z,15.40
2023-07-03T01:56:24.631Z,15.40
2023-07-03T01:58:59.993Z,15.30
2023-07-03T02:01:52.136Z,15.20
2023-07-03T02:04:36.789Z,15.20
2023-07-03T02:07:06.612Z,15.10
2023-07-03T02:09:33.959Z,15.10
2023-07-03T02:12:01.237Z,15.10
2023-07-03T02:14:28.328Z,15.10
2023-07-03T02:16:55.599Z,15.40
2023-07-03T02:19:30.037Z,15.10
2023-07-03T02:21:58.032Z,15.10
2023-07-03T02:24:25.674Z,14.90
2023-07-03T02:26:54.586Z,14.80
2023-07-03T02:29:21.992Z,14.90
2023-07-03T02:31:49.139Z,14.90
2023-07-03T02:34:16.648Z,14.90
2023-07-03T02:36:47.366Z,14.70
2023-07-03T02:39:14.493Z,14.70
2023-07-03T02:41:41.755Z,14.40
2023-07-03T02:44:08.986Z,14.70
2023-07-03T02:46:36.214Z,14.30
2023-07-03T02:49:04.791Z,14.40
2023-07-03T02:51:31.965Z,14.80
2023-07-03T02:53:59.197Z,14.60
2023-07-03T02:56:26.512Z,14.50
2023-07-03T02:58:53.603Z,14.50
2023-07-03T03:01:20.997Z,14.50
2023-07-03T03:03:48.618Z,14.40
2023-07-03T03:06:15.765Z,14.60
2023-07-03T03:08:42.854Z,14.60
2023-07-03T03:11:11.502Z,14.50
2023-07-03T03:13:38.552Z,14.70
2023-07-03T03:16:06.463Z,15.00
2023-07-03T03:18:33.543Z,14.70
2023-07-03T03:21:03.375Z,14.70
2023-07-03T03:23:30.594Z,15.10
2023-07-03T03:25:57.890Z,14.80
2023-07-03T03:28:24.917Z,15.20
2023-07-03T03:30:51.990Z,15.00
2023-07-03T03:33:19.119Z,14.80
2023-07-03T03:35:48.469Z,15.10
2023-07-03T03:38:15.974Z,15.00
2023-07-03T03:40:54.651Z,14.10
2023-07-03T03:43:22.028Z,15.20
2023-07-03T03:46:03.691Z,14.90
2023-07-03T03:48:32.475Z,15.20
2023-07-03T03:51:01.641Z,15.40
2023-07-03T03:53:28.815Z,15.50
2023-07-03T03:55:55.940Z,15.90
2023-07-03T03:58:23.262Z,16.20
2023-07-03T04:00:53.524Z,16.40
2023-07-03T04:03:21.052Z,16.80
2023-07-03T04:05:49.531Z,17.20
2023-07-03T04:08:17.153Z,17.40
2023-07-03T04:10:44.686Z,18.20
2023-07-03T04:13:14.639Z,18.00
2023-07-03T04:15:54.595Z,17.90
2023-07-03T04:18:24.223Z,17.50
2023-07-03T04:20:51.999Z,17.40
2023-07-03T04:23:19.782Z,17.30
2023-07-03T04:25:48.423Z,17.30
2023-07-03T04:28:18.976Z,17.10
2023-07-03T04:30:47.531Z,17.20
2023-07-03T04:33:15.256Z,16.70
2023-07-03T04:35:43.040Z,16.80
2023-07-03T04:38:10.613Z,17.20
2023-07-03T04:40:38.446Z,17.10
2023-07-03T04:43:09.452Z,17.20
2023-07-03T04:46:27.024Z,17.50
2023-07-03T04:49:01.334Z,19.00
2023-07-03T04:51:31.965Z,20.00
2023-07-03T04:54:01.596Z,19.90
2023-07-03T04:56:30.543Z,20.20
2023-07-03T04:58:57.836Z,20.90
2023-07-03T05:01:25.654Z,22.40
2023-07-03T05:03:53.272Z,23.60
2023-07-03T05:06:20.531Z,24.50
2023-07-03T05:08:48.168Z,24.90
2023-07-03T05:11:15.459Z,24.70
2023-07-03T05:13:42.816Z,25.10
2023-07-03T05:16:10.104Z,26.00
2023-07-03T05:18:37.364Z,26.50
2023-07-03T05:21:07.481Z,26.70
2023-07-03T05:23:34.838Z,27.00
2023-07-03T05:26:01.991Z,27.40
2023-07-03T05:28:29.120Z,27.50
2023-07-03T05:31:00.411Z,28.50
2023-07-03T05:33:29.966Z,27.20
2023-07-03T05:36:04.245Z,27.00
2023-07-03T05:38:46.592Z,27.70
2023-07-03T05:41:16.696Z,28.40
2023-07-03T05:43:46.360Z,28.60
2023-07-03T05:46:13.503Z,28.90
2023-07-03T05:48:40.730Z,28.90
2023-07-03T05:51:07.992Z,28.90
2023-07-03T05:53:35.423Z,29.10
2023-07-03T05:56:03.790Z,30.40
2023-07-03T05:58:46.221Z,30.80
2023-07-03T06:01:13.938Z,30.60
2023-07-03T06:03:44.275Z,30.40
2023-07-03T06:06:14.260Z,30.70
2023-07-03T06:08:49.206Z,30.50
2023-07-03T06:11:16.833Z,32.20
2023-07-03T06:13:50.372Z,32.30
2023-07-03T06:16:20.508Z,32.40
2023-07-03T06:18:47.785Z,32.30
2023-07-03T06:21:15.239Z,32.30
2023-07-03T06:23:42.540Z,32.60
2023-07-03T06:26:10.145Z,33.00
2023-07-03T06:28:37.515Z,33.10
2023-07-03T06:31:04.874Z,32.70
2023-07-03T06:33:35.515Z,33.30
2023-07-03T06:36:02.835Z,33.20
2023-07-03T06:38:30.060Z,33.50
2023-07-03T06:41:01.080Z,33.80
2023-07-03T06:43:28.425Z,33.60
2023-07-03T06:45:58.356Z,33.50
2023-07-03T06:48:26.067Z,33.50
2023-07-03T06:51:09.180Z,33.70
2023-07-03T06:53:44.579Z,34.00
2023-07-03T06:56:21.811Z,34.30
2023-07-03T06:58:52.576Z,34.20
2023-07-03T07:01:24.119Z,33.90
2023-07-03T07:03:51.968Z,34.20
2023-07-03T07:06:26.660Z,34.20
2023-07-03T07:08:54.879Z,34.10
2023-07-03T07:11:26.108Z,34.00
2023-07-03T07:13:58.813Z,33.80
2023-07-03T07:16:32.473Z,34.00
2023-07-03T07:19:02.613Z,34.30
2023-07-03T07:21:36.775Z,34.10
2023-07-03T07:24:21.759Z,34.50
2023-07-03T07:26:51.610Z,34.60
2023-07-03T07:29:19.076Z,34.60
2023-07-03T07:31:46.715Z,34.60
2023-07-03T07:34:14.121Z,34.60
2023-07-03T07:36:42.044Z,34.90
2023-07-03T07:39:14.699Z,35.10
2023-07-03T07:41:41.936Z,34.50
2023-07-03T07:44:09.319Z,34.90
2023-07-03T07:46:37.782Z,35.00
2023-07-03T07:49:05.785Z,35.00
2023-07-03T07:51:33.626Z,35.30
2023-07-03T07:54:01.168Z,35.30
2023-07-03T07:56:29.846Z,35.30
2023-07-03T07:58:59.000Z,35.00
2023-07-03T08:01:26.447Z,35.20
2023-07-03T08:03:53.775Z,35.30
2023-07-03T08:06:20.926Z,35.80
2023-07-03T08:08:48.180Z,35.50
2023-07-03T08:11:15.491Z,35.30
2023-07-03T08:13:43.502Z,35.40
2023-07-03T08:16:12.656Z,35.80
2023-07-03T08:18:39.834Z,35.80
2023-07-03T08:21:07.206Z,35.80
2023-07-03T08:23:34.440Z,35.80
2023-07-03T08:26:02.390Z,35.80
2023-07-03T08:28:31.008Z,36.00
2023-07-03T08:31:02.133Z,35.70
2023-07-03T08:33:29.502Z,36.20
2023-07-03T08:38:26.703Z,36.60
2023-07-03T08:41:02.513Z,36.30
2023-07-03T08:43:40.210Z,35.40
2023-07-03T08:46:18.070Z,35.30
2023-07-03T08:48:48.576Z,35.20
2023-07-03T08:51:20.670Z,35.00
2023-07-03T08:53:57.809Z,34.60
2023-07-03T08:56:32.067Z,34.60
2023-07-03T08:58:59.700Z,34.40
2023-07-03T09:01:46.920Z,34.80
2023-07-03T09:05:04.728Z,34.90
2023-07-03T09:07:53.524Z,35.30
2023-07-03T09:10:30.737Z,35.50
2023-07-03T09:13:13.377Z,34.90
2023-07-03T09:15:56.511Z,33.80
2023-07-03T09:18:30.298Z,34.40
2023-07-03T09:21:01.126Z,34.50
2023-07-03T09:23:54.382Z,34.80
2023-07-03T09:26:58.499Z,34.80
2023-07-03T09:29:28.515Z,34.80
2023-07-03T09:31:56.579Z,34.80
2023-07-03T09:34:23.928Z,34.80
2023-07-03T09:37:00.489Z,35.20
2023-07-03T09:39:28.422Z,35.20
2023-07-03T09:42:07.910Z,35.30
2023-07-03T09:44:43.255Z,35.30
2023-07-03T09:47:30.607Z,34.90
2023-07-03T09:50:07.609Z,34.80
2023-07-03T09:52:43.777Z,35.10
2023-07-03T09:55:18.012Z,35.20
2023-07-03T09:57:46.435Z,35.40
2023-07-03T10:00:22.619Z,35.40
2023-07-03T11:44:42.673Z,31.90
2023-07-03T11:47:30.177Z,31.60
2023-07-03T11:50:05.721Z,31.80
2023-07-03T11:52:48.655Z,32.00
2023-07-03T11:55:22.325Z,32.50
2023-07-03T11:58:09.596Z,32.60
2023-07-03T12:00:45.563Z,31.90
2023-07-03T12:03:53.984Z,31.40
2023-07-03T12:06:40.156Z,31.20
2023-07-03T12:09:22.070Z,31.00
2023-07-03T12:12:25.722Z,30.80
2023-07-03T12:14:58.871Z,31.40
2023-07-03T12:17:35.487Z,31.30
2023-07-03T12:20:14.794Z,32.30
2023-07-03T12:22:47.982Z,32.00
2023-07-03T12:25:30.270Z,32.20
2023-07-03T12:28:15.969Z,31.70
2023-07-03T12:30:44.433Z,31.60
2023-07-03T12:33:20.679Z,31.50
2023-07-03T12:35:51.005Z,32.00
2023-07-03T12:38:20.915Z,32.00
2023-07-03T12:40:51.226Z,31.80
2023-07-03T12:43:27.195Z,31.60
2023-07-03T12:45:55.760Z,31.20
2023-07-03T12:48:24.264Z,30.90
2023-07-03T12:50:58.911Z,30.70
2023-07-03T12:53:33.777Z,30.80
2023-07-03T12:56:07.332Z,30.50
2023-07-03T12:58:34.457Z,30.40
2023-07-03T13:01:07.764Z,30.30
2023-07-03T13:03:41.595Z,30.40
2023-07-03T13:06:30.503Z,30.70
2023-07-03T13:08:59.262Z,30.50
2023-07-03T13:11:39.845Z,30.40
2023-07-03T13:14:11.924Z,30.10
2023-07-03T13:16:40.448Z,30.30
2023-07-03T13:19:07.668Z,30.30
2023-07-03T13:21:38.245Z,30.40
2023-07-03T13:24:14.377Z,30.60
2023-07-03T13:26:42.932Z,30.50
2023-07-03T13:29:11.375Z,30.10
2023-07-03T13:31:50.836Z,30.10
2023-07-03T13:34:23.196Z,29.90
2023-07-03T13:37:05.789Z,29.80
2023-07-03T13:39:37.390Z,29.50
2023-07-03T13:42:10.033Z,29.60
2023-07-03T13:44:37.103Z,29.70
2023-07-03T13:47:04.449Z,29.70
2023-07-03T13:49:33.847Z,29.80
2023-07-03T13:55:08.055Z,29.90
2023-07-03T13:57:45.172Z,29.90
2023-07-03T14:00:13.107Z,29.70
2023-07-03T14:02:48.969Z,29.70
2023-07-03T14:05:21.332Z,29.80
2023-07-03T14:08:00.581Z,29.80
2023-07-03T14:10:27.762Z,29.60
2023-07-03T14:12:59.218Z,29.70
2023-07-03T14:15:29.574Z,29.40
2023-07-03T14:17:57.015Z,29.20
2023-07-03T14:20:27.704Z,28.90
2023-07-03T14:22:57.464Z,28.70
2023-07-03T14:25:31.196Z,28.80
2023-07-03T14:28:06.304Z,28.90
2023-07-03T14:30:47.320Z,28.50
2023-07-03T14:33:17.727Z,28.40
2023-07-03T14:35:49.878Z,28.60
2023-07-03T14:38:17.555Z,28.60
2023-07-03T14:40:48.192Z,28.60
2023-07-03T14:43:15.370Z,28.80
2023-07-03T14:45:42.571Z,28.70
2023-07-03T14:48:11.427Z,28.50
2023-07-03T14:50:40.310Z,28.70
2023-07-03T14:53:16.978Z,28.70
2023-07-03T14:55:44.106Z,28.60
2023-07-03T14:58:16.231Z,28.60
2023-07-03T15:00:43.414Z,28.50
2023-07-03T15:03:11.403Z,28.40
2023-07-03T15:05:38.813Z,28.50
2023-07-03T15:08:10.874Z,28.50
2023-07-03T15:10:38.834Z,28.50
2023-07-03T15:13:07.030Z,28.20
2023-07-03T15:15:38.594Z,28.40
2023-07-03T15:18:12.133Z,28.30
2023-07-03T15:20:41.544Z,27.90
2023-07-03T15:23:10.459Z,27.80
2023-07-03T15:25:37.798Z,27.80
2023-07-03T15:28:05.414Z,27.80
2023-07-03T15:30:32.434Z,27.70
2023-07-03T15:32:59.602Z,27.80
2023-07-03T15:35:26.917Z,27.80
2023-07-03T15:37:54.027Z,27.80
2023-07-03T15:40:21.194Z,27.60
2023-07-03T15:42:48.320Z,27.70
2023-07-03T15:45:15.756Z,27.60
2023-07-03T15:47:46.322Z,27.80
2023-07-03T15:50:14.796Z,27.50
2023-07-03T15:52:42.078Z,27.80
2023-07-03T15:55:09.645Z,27.40
2023-07-03T15:57:36.762Z,27.20
2023-07-03T16:00:04.345Z,27.40
2023-07-03T16:02:31.688Z,27.30
2023-07-03T16:04:58.972Z,27.40
2023-07-03T16:07:29.808Z,27.30
2023-07-03T16:11:08.884Z,27.40
2023-07-03T16:13:39.653Z,27.30
2023-07-03T16:16:19.753Z,27.30
2023-07-03T16:19:16.779Z,27.20
2023-07-03T16:21:44.103Z,27.10
2023-07-03T16:24:42.058Z,27.00
2023-07-03T16:27:09.845Z,27.10
2023-07-03T16:29:37.198Z,26.80
2023-07-03T16:32:04.822Z,26.90
2023-07-03T16:34:32.097Z,26.80
2023-07-03T16:36:59.198Z,26.80
2023-07-03T16:39:26.286Z,26.90
2023-07-03T16:41:53.437Z,27.00
2023-07-03T16:44:21.432Z,26.70
2023-07-03T16:46:52.971Z,27.00
2023-07-03T16:49:20.524Z,26.90
2023-07-03T16:51:47.696Z,26.70
2023-07-03T16:54:14.895Z,26.60
2023-07-03T16:56:42.103Z,26.60
2023-07-03T16:59:10.038Z,26.50
2023-07-03T17:01:40.696Z,26.60
2023-07-03T17:04:10.931Z,26.40
2023-07-03T17:06:38.204Z,26.60
2023-07-03T17:09:07.873Z,26.40
2023-07-03T17:11:39.752Z,26.40
2023-07-03T17:14:07.017Z,26.30
2023-07-03T17:16:36.471Z,26.30
2023-07-03T17:19:03.725Z,26.30
2023-07-03T17:21:31.453Z,26.20
2023-07-03T17:24:06.161Z,26.20
2023-07-03T17:26:34.315Z,26.00
2023-07-03T17:29:04.492Z,26.20
2023-07-03T17:31:32.146Z,26.10
2023-07-03T17:33:59.546Z,26.10
2023-07-03T17:36:26.865Z,26.00
2023-07-03T17:38:54.312Z,25.90
2023-07-03T17:41:23.254Z,25.90
2023-07-03T17:43:52.879Z,25.70
2023-07-03T17:46:22.080Z,25.70
2023-07-03T17:48:49.246Z,25.70
2023-07-03T17:51:17.015Z,25.30
2023-07-03T17:53:45.602Z,25.50
2023-07-03T17:56:12.720Z,25.50
2023-07-03T17:58:40.673Z,25.40
2023-07-03T18:01:08.065Z,25.20
2023-07-03T18:03:35.420Z,25.40
2023-07-03T18:06:02.975Z,25.20
2023-07-03T18:08:33.049Z,25.20
2023-07-03T18:11:00.315Z,25.00
2023-07-03T18:13:29.074Z,25.00
2023-07-03T18:15:57.266Z,24.60
2023-07-03T18:18:24.965Z,24.80
2023-07-03T18:20:52.028Z,24.80
2023-07-03T18:23:19.222Z,24.50
2023-07-03T18:25:49.589Z,24.50
2023-07-03T18:28:18.777Z,24.50
2023-07-03T18:30:46.404Z,24.30
2023-07-03T18:33:13.676Z,24.30
2023-07-03T18:35:40.943Z,24.50
2023-07-03T18:38:08.234Z,24.00
2023-07-03T18:40:35.525Z,24.10
2023-07-03T18:43:09.057Z,24.00
2023-07-03T18:45:36.801Z,24.00
2023-07-03T18:48:07.017Z,24.00
2023-07-03T18:50:34.343Z,23.60
2023-07-03T18:53:01.717Z,23.80
2023-07-03T18:55:29.126Z,23.60
2023-07-03T18:57:57.122Z,23.80
2023-07-03T19:00:24.505Z,23.50
2023-07-03T19:02:51.993Z,23.40
2023-07-03T19:05:19.166Z,23.50
2023-07-03T19:07:46.399Z,23.40
2023-07-03T19:10:18.669Z,23.40
2023-07-03T19:12:47.407Z,22.90
2023-07-03T19:15:14.890Z,23.00
2023-07-03T19:17:43.457Z,23.20
2023-07-03T19:20:12.258Z,23.10
2023-07-03T19:22:39.607Z,23.00
2023-07-03T19:25:10.260Z,22.90
2023-07-03T19:27:37.377Z,23.20
2023-07-03T19:30:06.574Z,23.00
2023-07-03T19:32:33.768Z,23.10
2023-07-03T19:35:00.985Z,22.90
2023-07-03T19:37:28.093Z,22.80
2023-07-03T19:39:55.458Z,22.70
2023-07-03T19:42:22.638Z,22.70
2023-07-03T19:44:52.054Z,22.60
2023-07-03T19:47:19.467Z,22.70
2023-07-03T19:49:46.563Z,22.80
2023-07-03T19:52:13.720Z,22.70
2023-07-03T19:54:40.878Z,22.60
2023-07-03T19:57:11.429Z,22.70
2023-07-03T19:59:42.163Z,22.30
2023-07-03T20:02:09.583Z,22.40
2023-07-03T20:04:37.406Z,22.50
2023-07-03T20:07:04.814Z,22.30
2023-07-03T20:09:32.713Z,22.50
2023-07-03T20:12:00.019Z,22.30
2023-07-03T20:14:27.247Z,22.20
2023-07-03T20:16:54.782Z,22.30
2023-07-03T20:19:21.989Z,22.10
2023-07-03T20:21:49.237Z,22.20
2023-07-03T20:24:19.121Z,22.30
2023-07-03T20:26:46.477Z,21.90
2023-07-03T20:29:13.746Z,22.30
2023-07-03T20:31:43.032Z,22.10
2023-07-03T20:34:12.578Z,22.20
2023-07-03T20:36:39.910Z,21.70
2023-07-03T20:39:07.294Z,21.80
2023-07-03T20:41:34.740Z,21.90
2023-07-03T20:44:08.019Z,21.80
2023-07-03T20:46:35.315Z,21.80
2023-07-03T20:49:02.742Z,21.70
2023-07-03T20:51:33.748Z,21.60
2023-07-03T20:54:04.331Z,21.50
2023-07-03T20:56:37.084Z,21.50
2023-07-03T20:59:04.287Z,21.40
2023-07-03T21:01:38.382Z,21.40
2023-07-03T21:04:07.962Z,21.50
2023-07-03T21:06:38.439Z,21.40
2023-07-03T21:09:07.129Z,21.50
2023-07-03T21:11:40.387Z,21.70
2023-07-03T21:14:08.174Z,21.20
2023-07-03T21:16:37.076Z,21.40
2023-07-03T21:19:07.194Z,21.10
2023-07-03T21:21:34.329Z,21.10
2023-07-03T21:24:05.739Z,20.90
2023-07-03T21:26:32.965Z,20.80
2023-07-03T21:29:00.766Z,20.50
2023-07-03T21:31:31.432Z,20.40
2023-07-03T21:33:59.409Z,20.80
2023-07-03T21:36:38.015Z,20.70
2023-07-03T21:39:07.249Z,20.60
2023-07-03T21:41:36.998Z,20.90
2023-07-03T21:44:16.675Z,20.80
2023-07-03T21:46:44.568Z,20.70
2023-07-03T21:49:14.529Z,20.40
2023-07-03T21:51:42.052Z,20.40
2023-07-03T21:54:09.170Z,20.30
2023-07-03T21:56:39.609Z,20.30
2023-07-03T21:59:10.179Z,20.40
2023-07-03T22:01:40.061Z,20.20
2023-07-03T22:04:11.523Z,20.10
2023-07-03T22:06:38.769Z,20.30
2023-07-03T22:09:08.582Z,20.50
2023-07-03T22:11:36.004Z,20.10
2023-07-03T22:14:05.482Z,20.00
2023-07-03T22:16:33.261Z,19.90
2023-07-03T22:19:00.726Z,20.10
2023-07-03T22:21:34.194Z,20.00
2023-07-03T22:24:01.739Z,19.90
2023-07-03T22:26:31.360Z,19.70
2023-07-03T22:29:04.313Z,20.20
2023-07-03T22:31:32.010Z,19.90
2023-07-03T22:34:05.840Z,19.70
2023-07-03T22:36:34.285Z,19.90
2023-07-03T22:39:01.488Z,19.90
2023-07-03T22:41:28.648Z,19.80
2023-07-03T22:43:55.799Z,19.80
2023-07-03T22:46:24.790Z,19.70
2023-07-03T22:48:54.582Z,19.70
2023-07-03T22:51:24.262Z,19.70
2023-07-03T22:53:51.560Z,19.40
2023-07-03T22:56:19.979Z,19.70
2023-07-03T22:58:47.221Z,19.50
2023-07-03T23:01:14.565Z,19.80
2023-07-03T23:03:44.198Z,19.70
2023-07-03T23:06:12.425Z,19.40
2023-07-03T23:08:39.660Z,19.30
2023-07-03T23:11:07.349Z,19.30
2023-07-03T23:13:35.437Z,19.10
2023-07-03T23:16:07.511Z,19.30
2023-07-03T23:18:39.889Z,19.30
2023-07-03T23:21:16.954Z,19.20
2023-07-03T23:23:45.452Z,19.30
2023-07-03T23:26:15.811Z,19.00
2023-07-03T23:28:45.756Z,18.90
2023-07-03T23:31:17.698Z,19.30
2023-07-03T23:33:51.504Z,18.90
2023-07-03T23:36:21.743Z,19.30
2023-07-03T23:38:55.019Z,18.80
2023-07-03T23:41:29.128Z,19.10
2023-07-03T23:43:57.627Z,19.10
2023-07-03T23:46:33.172Z,18.90
2023-07-03T23:49:00.997Z,18.80
2023-07-03T23:51:30.415Z,19.00
2023-07-03T23:53:58.568Z,19.30
2023-07-03T23:56:25.666Z,19.20
2023-07-03T23:58:52.898Z,19.40
